createdAt,value
2023-02-21T00:01:01.610Z,2.6
2023-02-21T00:03:27.695Z,2.6
2023-02-21T00:05:52.809Z,2.6
2023-02-21T00:08:18.903Z,2.6
2023-02-21T00:10:45.011Z,2.6
2023-02-21T00:13:11.107Z,2.6
2023-02-21T00:15:37.209Z,2.5
2023-02-21T00:18:03.298Z,2.5
2023-02-21T00:20:29.385Z,2.5
2023-02-21T00:22:55.535Z,2.5
2023-02-21T00:25:21.639Z,2.5
2023-02-21T00:30:13.868Z,2.4
2023-02-21T00:32:39.871Z,2.4
2023-02-21T00:35:05.961Z,2.4
2023-02-21T00:37:31.091Z,2.3
2023-02-21T00:39:57.175Z,2.3
2023-02-21T00:42:23.318Z,2.3
2023-02-21T00:44:49.375Z,2.2
2023-02-21T00:47:15.464Z,2.2
2023-02-21T00:49:41.576Z,2.2
2023-02-21T00:52:07.673Z,2.2
2023-02-21T00:54:33.752Z,2.2
2023-02-21T00:56:59.847Z,2.2
2023-02-21T00:59:25.949Z,2.2
2023-02-21T01:01:52.045Z,2.1
2023-02-21T01:04:18.145Z,2.1
2023-02-21T01:06:44.243Z,2.1
2023-02-21T01:09:09.378Z,2.1
2023-02-21T01:11:35.461Z,2.1
2023-02-21T01:14:01.566Z,2.1
2023-02-21T01:16:27.653Z,2.1
2023-02-21T01:18:53.753Z,2
2023-02-21T01:21:19.843Z,2
2023-02-21T01:23:45.937Z,2
2023-02-21T01:26:12.095Z,2
2023-02-21T01:28:38.135Z,1.9
2023-02-21T01:31:04.230Z,1.9
2023-02-21T01:33:30.341Z,1.9
2023-02-21T01:35:56.433Z,1.9
2023-02-21T01:38:22.534Z,1.9
2023-02-21T01:40:47.639Z,1.8
2023-02-21T01:43:13.730Z,1.8
2023-02-21T01:45:39.852Z,1.8
2023-02-21T01:48:05.930Z,1.8
2023-02-21T01:50:32.022Z,1.8
2023-02-21T01:52:58.129Z,1.8
2023-02-21T01:55:24.228Z,1.8
2023-02-21T01:57:50.319Z,1.8
2023-02-21T02:00:16.410Z,1.8
2023-02-21T02:02:42.516Z,1.7
2023-02-21T02:05:08.608Z,1.7
2023-02-21T02:07:34.727Z,1.6
2023-02-21T02:10:01.088Z,1.6
2023-02-21T02:12:25.915Z,1.6
2023-02-21T02:14:52.025Z,1.5
2023-02-21T02:17:18.130Z,1.5
2023-02-21T02:19:44.219Z,1.5
2023-02-21T02:22:10.316Z,1.5
2023-02-21T02:24:36.411Z,1.5
2023-02-21T02:27:02.504Z,1.4
2023-02-21T02:29:28.613Z,1.4
2023-02-21T02:31:54.710Z,1.4
2023-02-21T02:34:20.786Z,1.4
2023-02-21T02:36:46.927Z,1.4
2023-02-21T02:39:12.993Z,1.4
2023-02-21T02:41:39.090Z,1.4
2023-02-21T02:44:04.195Z,1.4
2023-02-21T02:46:30.288Z,1.4
2023-02-21T02:48:56.397Z,1.4
2023-02-21T02:51:22.484Z,1.4
2023-02-21T02:53:48.598Z,1.3
2023-02-21T02:56:14.683Z,1.3
2023-02-21T02:58:40.779Z,1.3
2023-02-21T03:01:06.882Z,1.3
2023-02-21T03:03:32.985Z,1.3
2023-02-21T03:05:58.100Z,1.3
2023-02-21T03:10:50.302Z,1.2
2023-02-21T03:13:16.392Z,1.2
2023-02-21T03:15:42.488Z,1.2
2023-02-21T03:18:08.602Z,1.2
2023-02-21T03:20:34.693Z,1.1
2023-02-21T03:23:00.777Z,1.1
2023-02-21T03:25:26.885Z,1.1
2023-02-21T03:27:52.989Z,1.1
2023-02-21T03:30:19.069Z,1.1
2023-02-21T03:32:45.160Z,1.1
2023-02-21T03:35:11.278Z,1.1
2023-02-21T03:37:36.398Z,1
2023-02-21T03:40:02.484Z,1
2023-02-21T03:42:28.591Z,1
2023-02-21T03:44:54.694Z,1
2023-02-21T03:47:20.783Z,1
2023-02-21T03:49:46.918Z,0.9
2023-02-21T03:52:12.978Z,0.9
2023-02-21T03:54:39.061Z,0.9
2023-02-21T03:57:05.157Z,0.9
2023-02-21T03:59:31.250Z,0.9
2023-02-21T04:01:57.360Z,0.9
2023-02-21T04:04:23.466Z,0.9
2023-02-21T04:06:49.552Z,0.9
2023-02-21T04:09:14.668Z,0.9
2023-02-21T04:11:40.764Z,0.9
2023-02-21T04:14:06.866Z,0.9
2023-02-21T04:16:32.965Z,0.9
2023-02-21T04:18:59.073Z,0.9
2023-02-21T04:21:25.159Z,0.9
2023-02-21T04:23:51.249Z,0.9
2023-02-21T04:26:17.358Z,0.9
2023-02-21T04:28:43.444Z,0.9
2023-02-21T04:31:09.529Z,0.9
2023-02-21T04:33:35.646Z,0.9
2023-02-21T04:36:01.742Z,0.9
2023-02-21T04:38:30.435Z,0.9
2023-02-21T04:40:52.962Z,0.8
2023-02-21T04:43:19.073Z,0.9
2023-02-21T04:45:45.156Z,0.9
2023-02-21T04:48:11.253Z,0.9
2023-02-21T04:50:37.373Z,0.9
2023-02-21T04:53:03.437Z,0.9
2023-02-21T04:55:29.542Z,0.9
2023-02-21T04:57:55.651Z,0.9
2023-02-21T05:00:21.734Z,0.9
2023-02-21T05:02:47.857Z,0.9
2023-02-21T05:05:13.940Z,0.9
2023-02-21T05:07:40.020Z,0.9
2023-02-21T05:10:06.110Z,0.9
2023-02-21T05:12:31.279Z,0.9
2023-02-21T05:14:57.332Z,0.9
2023-02-21T05:17:23.435Z,0.9
2023-02-21T05:19:49.523Z,0.9
2023-02-21T05:22:15.622Z,0.9
2023-02-21T05:24:41.732Z,0.9
2023-02-21T05:27:07.823Z,0.9
2023-02-21T05:29:33.910Z,0.9
2023-02-21T05:32:00.009Z,0.9
2023-02-21T05:34:26.110Z,0.9
2023-02-21T05:36:52.211Z,0.9
2023-02-21T05:39:18.309Z,0.8
2023-02-21T05:41:44.407Z,0.8
2023-02-21T05:44:09.512Z,0.8
2023-02-21T05:46:35.619Z,0.8
2023-02-21T05:49:01.709Z,0.8
2023-02-21T05:51:27.813Z,0.8
2023-02-21T05:53:53.956Z,0.8
2023-02-21T05:56:20.085Z,0.8
2023-02-21T05:58:46.104Z,0.7
2023-02-21T06:01:12.191Z,0.7
2023-02-21T06:03:38.318Z,0.7
2023-02-21T06:06:04.408Z,0.7
2023-02-21T06:08:30.496Z,0.6
2023-02-21T06:10:56.588Z,0.6
2023-02-21T06:13:22.677Z,0.6
2023-02-21T06:15:47.822Z,0.6
2023-02-21T06:18:13.887Z,0.6
2023-02-21T06:20:39.989Z,0.6
2023-02-21T06:23:06.080Z,0.6
2023-02-21T06:25:32.171Z,0.6
2023-02-21T06:27:58.293Z,0.6
2023-02-21T06:30:24.486Z,0.6
2023-02-21T06:32:50.487Z,0.6
2023-02-21T06:35:16.573Z,0.6
2023-02-21T06:37:42.673Z,0.6
2023-02-21T06:40:08.801Z,0.6
2023-02-21T06:42:34.873Z,0.6
2023-02-21T06:45:00.997Z,0.6
2023-02-21T06:47:26.188Z,0.6
2023-02-21T06:49:52.192Z,0.6
2023-02-21T06:52:18.292Z,0.6
2023-02-21T06:54:44.376Z,0.6
2023-02-21T06:57:10.489Z,0.6
2023-02-21T06:59:36.587Z,0.6
2023-02-21T07:02:02.678Z,0.7
2023-02-21T07:04:28.749Z,0.7
2023-02-21T07:06:54.873Z,0.7
2023-02-21T07:09:21.007Z,0.7
2023-02-21T07:11:47.111Z,0.8
2023-02-21T07:14:13.162Z,0.8
2023-02-21T07:16:39.258Z,0.8
2023-02-21T07:19:04.376Z,0.8
2023-02-21T07:21:30.466Z,0.9
2023-02-21T07:23:56.573Z,0.9
2023-02-21T07:26:22.651Z,0.9
2023-02-21T07:28:48.753Z,1
2023-02-21T07:31:14.846Z,1
2023-02-21T07:33:40.940Z,1
2023-02-21T07:36:07.058Z,1.1
2023-02-21T07:38:33.136Z,1.1
2023-02-21T07:40:59.239Z,1.2
2023-02-21T07:43:25.348Z,1.2
2023-02-21T07:45:51.431Z,1.2
2023-02-21T07:48:17.522Z,1.3
2023-02-21T07:50:43.632Z,1.3
2023-02-21T07:53:09.728Z,1.4
2023-02-21T07:55:35.836Z,1.5
2023-02-21T07:58:01.918Z,1.5
2023-02-21T08:00:28.049Z,1.6
2023-02-21T08:02:54.118Z,1.6
2023-02-21T08:05:20.225Z,1.7
2023-02-21T08:07:46.303Z,1.8
2023-02-21T08:10:12.542Z,1.8
2023-02-21T08:12:38.510Z,1.9
2023-02-21T08:15:03.610Z,1.9
2023-02-21T08:17:29.738Z,2
2023-02-21T08:19:55.802Z,2.1
2023-02-21T08:22:21.926Z,2.1
2023-02-21T08:24:48.058Z,2.2
2023-02-21T08:27:14.110Z,2.3
2023-02-21T08:29:40.205Z,2.4
2023-02-21T08:32:06.306Z,2.4
2023-02-21T08:34:32.404Z,2.5
2023-02-21T08:36:58.664Z,2.6
2023-02-21T08:39:24.793Z,2.6
2023-02-21T08:41:50.717Z,2.7
2023-02-21T08:44:16.793Z,2.8
2023-02-21T08:46:41.907Z,2.8
2023-02-21T08:49:07.988Z,2.9
2023-02-21T08:51:34.100Z,3
2023-02-21T08:54:00.191Z,3.1
2023-02-21T08:56:26.286Z,3.1
2023-02-21T08:58:52.523Z,3.2
2023-02-21T09:01:18.475Z,3.3
2023-02-21T09:03:44.584Z,3.4
2023-02-21T09:06:10.672Z,3.5
2023-02-21T09:08:36.793Z,3.6
2023-02-21T09:11:02.869Z,3.6
2023-02-21T09:13:28.994Z,3.7
2023-02-21T09:15:55.141Z,3.8
2023-02-21T09:18:20.179Z,3.9
2023-02-21T09:20:46.275Z,4
2023-02-21T09:23:12.373Z,4.1
2023-02-21T09:25:38.456Z,4.2
2023-02-21T09:28:04.730Z,4.3
2023-02-21T09:30:30.670Z,4.4
2023-02-21T09:32:56.760Z,4.5
2023-02-21T09:35:22.845Z,4.6
2023-02-21T09:37:48.950Z,4.7
2023-02-21T09:40:15.209Z,4.8
2023-02-21T09:42:41.132Z,4.9
2023-02-21T09:45:07.231Z,5
2023-02-21T09:47:33.339Z,5.1
2023-02-21T09:49:58.452Z,5.2
2023-02-21T09:52:24.526Z,5.3
2023-02-21T09:54:50.657Z,5.4
2023-02-21T09:57:16.732Z,5.6
2023-02-21T09:59:42.822Z,5.6
2023-02-21T10:02:08.956Z,5.8
2023-02-21T10:04:35.886Z,5.8
2023-02-21T10:07:01.122Z,6
2023-02-21T10:09:27.201Z,6.1
2023-02-21T10:11:53.293Z,6.2
2023-02-21T10:14:19.407Z,6.3
2023-02-21T10:16:45.506Z,6.4
2023-02-21T10:19:11.597Z,6.5
2023-02-21T10:21:36.859Z,6.6
2023-02-21T10:24:02.834Z,6.8
2023-02-21T10:26:28.897Z,6.9
2023-02-21T10:28:54.974Z,7
2023-02-21T10:31:21.101Z,7.1
2023-02-21T10:33:47.175Z,7.2
2023-02-21T10:36:13.292Z,7.3
2023-02-21T10:38:39.365Z,7.4
2023-02-21T10:41:05.470Z,7.5
2023-02-21T10:43:31.557Z,7.6
2023-02-21T10:45:57.795Z,7.7
2023-02-21T10:48:23.894Z,7.9
2023-02-21T10:50:49.843Z,8
2023-02-21T10:53:15.065Z,8.1
2023-02-21T10:55:41.061Z,8.2
2023-02-21T10:58:07.165Z,8.3
2023-02-21T11:00:33.327Z,8.4
2023-02-21T11:02:59.416Z,8.5
2023-02-21T11:05:25.507Z,8.6
2023-02-21T11:07:51.548Z,8.7
2023-02-21T11:10:17.628Z,8.8
2023-02-21T11:12:43.733Z,8.9
2023-02-21T11:15:08.860Z,9
2023-02-21T11:17:34.942Z,9
2023-02-21T11:20:01.059Z,9.1
2023-02-21T11:22:27.305Z,9.2
2023-02-21T11:24:53.234Z,9.3
2023-02-21T11:27:19.316Z,9.4
2023-02-21T11:29:45.421Z,9.5
2023-02-21T11:32:11.514Z,9.6
2023-02-21T11:34:37.616Z,9.7
2023-02-21T11:37:03.716Z,9.7
2023-02-21T11:39:29.800Z,9.8
2023-02-21T11:41:55.909Z,9.8
2023-02-21T11:44:22.002Z,9.9
2023-02-21T11:46:48.118Z,9.9
2023-02-21T11:49:13.215Z,10
2023-02-21T11:51:39.307Z,10
2023-02-21T11:54:05.415Z,10.1
2023-02-21T11:56:31.497Z,10.2
2023-02-21T11:58:57.591Z,10.2
2023-02-21T12:01:23.691Z,10.3
2023-02-21T12:03:49.777Z,10.4
2023-02-21T12:06:15.864Z,10.4
2023-02-21T12:08:41.957Z,10.5
2023-02-21T12:11:08.061Z,10.5
2023-02-21T12:13:34.147Z,10.6
2023-02-21T12:16:00.246Z,10.6
2023-02-21T12:18:26.341Z,10.7
2023-02-21T12:20:51.473Z,10.7
2023-02-21T12:23:17.562Z,10.8
2023-02-21T12:25:43.633Z,10.8
2023-02-21T12:28:09.736Z,10.9
2023-02-21T12:30:35.841Z,11
2023-02-21T12:33:01.934Z,11.1
2023-02-21T12:35:28.042Z,11.2
2023-02-21T12:37:54.171Z,11.3
2023-02-21T12:40:20.298Z,11.4
2023-02-21T12:42:46.332Z,11.4
2023-02-21T12:45:12.403Z,11.5
2023-02-21T12:47:38.542Z,11.5
2023-02-21T12:50:04.619Z,11.6
2023-02-21T12:52:29.750Z,11.6
2023-02-21T12:54:55.820Z,11.7
2023-02-21T12:57:21.903Z,11.7
2023-02-21T12:59:48.044Z,11.8
2023-02-21T13:02:14.122Z,11.8
2023-02-21T13:04:40.236Z,11.9
2023-02-21T13:07:06.293Z,11.9
2023-02-21T13:09:32.435Z,12
2023-02-21T13:11:58.534Z,12.1
2023-02-21T13:14:24.585Z,12.1
2023-02-21T13:16:50.670Z,12.2
2023-02-21T13:19:16.769Z,12.2
2023-02-21T13:21:42.863Z,12.3
2023-02-21T13:24:07.994Z,12.4
2023-02-21T13:26:34.071Z,12.4
2023-02-21T13:29:00.159Z,12.5
2023-02-21T13:31:26.260Z,12.5
2023-02-21T13:33:52.357Z,12.6
2023-02-21T13:36:18.458Z,12.6
2023-02-21T13:38:44.629Z,12.7
2023-02-21T13:41:10.675Z,12.8
2023-02-21T13:43:36.784Z,12.8
2023-02-21T13:46:02.867Z,12.8
2023-02-21T13:48:28.991Z,12.9
2023-02-21T13:50:55.053Z,12.9
2023-02-21T13:53:21.155Z,13
2023-02-21T13:55:46.359Z,13.1
2023-02-21T13:58:12.359Z,13.1
2023-02-21T14:00:38.455Z,13.2
2023-02-21T14:03:04.562Z,13.3
2023-02-21T14:05:30.646Z,13.3
2023-02-21T14:07:56.721Z,13.4
2023-02-21T14:10:22.803Z,13.4
2023-02-21T14:12:48.898Z,13.5
2023-02-21T14:15:15.042Z,13.5
2023-02-21T14:17:41.104Z,13.5
2023-02-21T14:22:33.276Z,13.6
2023-02-21T14:24:59.365Z,13.6
2023-02-21T14:27:24.489Z,13.5
2023-02-21T14:32:16.661Z,13.5
2023-02-21T14:34:42.773Z,13.5
2023-02-21T14:37:08.871Z,13.5
2023-02-21T14:39:34.980Z,13.5
2023-02-21T14:42:01.057Z,13.5
2023-02-21T14:44:27.197Z,13.5
2023-02-21T14:46:53.368Z,13.5
2023-02-21T14:49:19.329Z,13.5
2023-02-21T14:51:45.435Z,13.6
2023-02-21T14:54:11.545Z,13.6
2023-02-21T14:56:37.615Z,13.6
2023-02-21T14:59:02.742Z,13.6
2023-02-21T15:01:28.821Z,13.7
2023-02-21T15:03:54.930Z,13.7
2023-02-21T15:06:21.025Z,13.7
2023-02-21T15:08:47.126Z,13.7
2023-02-21T15:11:13.205Z,13.7
2023-02-21T15:13:39.311Z,13.6
2023-02-21T15:16:05.390Z,13.6
2023-02-21T15:18:31.499Z,13.5
2023-02-21T15:20:57.587Z,13.5
2023-02-21T15:23:23.682Z,13.5
2023-02-21T15:25:49.771Z,13.4
2023-02-21T15:28:15.873Z,13.4
2023-02-21T15:30:40.977Z,13.3
2023-02-21T15:33:07.075Z,13.2
2023-02-21T15:35:33.167Z,13.1
2023-02-21T15:37:59.252Z,13
2023-02-21T15:40:25.363Z,12.9
2023-02-21T15:42:51.456Z,12.8
2023-02-21T15:45:17.563Z,12.7
2023-02-21T15:47:43.642Z,12.6
2023-02-21T15:50:09.748Z,12.5
2023-02-21T15:52:35.834Z,12.4
2023-02-21T15:55:01.932Z,12.3
2023-02-21T15:57:28.034Z,12.2
2023-02-21T15:59:54.109Z,12.1
2023-02-21T16:02:19.232Z,12
2023-02-21T16:04:45.320Z,11.8
2023-02-21T16:07:11.425Z,11.7
2023-02-21T16:09:37.507Z,11.6
2023-02-21T16:12:03.617Z,11.5
2023-02-21T16:14:29.701Z,11.4
2023-02-21T16:16:55.835Z,11.3
2023-02-21T16:19:21.914Z,11.2
2023-02-21T16:21:47.997Z,11.1
2023-02-21T16:24:14.070Z,11.1
2023-02-21T16:26:40.194Z,10.9
2023-02-21T16:29:06.282Z,10.8
2023-02-21T16:31:32.376Z,10.7
2023-02-21T16:33:58.473Z,10.6
2023-02-21T16:36:24.575Z,10.6
2023-02-21T16:38:50.679Z,10.5
2023-02-21T16:41:16.769Z,10.4
2023-02-21T16:43:42.862Z,10.3
2023-02-21T16:46:08.955Z,10.2
2023-02-21T16:48:35.062Z,10.1
2023-02-21T16:51:01.145Z,10
2023-02-21T16:53:27.240Z,9.9
2023-02-21T16:55:53.337Z,9.8
2023-02-21T16:58:19.492Z,9.7
2023-02-21T17:00:45.557Z,9.6
2023-02-21T17:03:10.640Z,9.5
2023-02-21T17:05:36.725Z,9.4
2023-02-21T17:08:02.821Z,9.3
2023-02-21T17:10:28.914Z,9.2
2023-02-21T17:12:55.041Z,9.1
2023-02-21T17:15:21.124Z,9
2023-02-21T17:17:47.250Z,8.9
2023-02-21T17:20:13.319Z,8.8
2023-02-21T17:22:39.416Z,8.7
2023-02-21T17:25:05.510Z,8.6
2023-02-21T17:27:31.587Z,8.5
2023-02-21T17:29:57.686Z,8.4
2023-02-21T17:32:23.797Z,8.3
2023-02-21T17:34:49.875Z,8.2
2023-02-21T17:37:15.985Z,8.1
2023-02-21T17:39:42.100Z,8
2023-02-21T17:42:08.167Z,7.9
2023-02-21T17:44:33.271Z,7.8
2023-02-21T17:46:59.394Z,7.7
2023-02-21T17:49:25.475Z,7.7
2023-02-21T17:51:51.575Z,7.6
2023-02-21T17:54:17.683Z,7.5
2023-02-21T17:56:43.776Z,7.5
2023-02-21T17:59:09.851Z,7.4
2023-02-21T18:01:35.968Z,7.3
2023-02-21T18:04:02.060Z,7.3
2023-02-21T18:06:28.154Z,7.2
2023-02-21T18:08:54.267Z,7.1
2023-02-21T18:11:20.356Z,7.1
2023-02-21T18:13:46.440Z,7
2023-02-21T18:16:11.556Z,6.9
2023-02-21T18:18:37.663Z,6.9
2023-02-21T18:21:03.739Z,6.8
2023-02-21T18:23:29.843Z,6.7
2023-02-21T18:25:55.949Z,6.7
2023-02-21T18:28:22.065Z,6.6
2023-02-21T18:30:48.137Z,6.6
2023-02-21T18:33:14.220Z,6.5
2023-02-21T18:35:40.324Z,6.4
2023-02-21T18:38:06.403Z,6.4
2023-02-21T18:40:32.509Z,6.3
2023-02-21T18:42:58.598Z,6.3
2023-02-21T18:45:24.774Z,6.2
2023-02-21T18:47:49.819Z,6.2
2023-02-21T18:50:15.912Z,6.1
2023-02-21T18:52:42.076Z,6.1
2023-02-21T18:55:08.094Z,6
2023-02-21T18:57:34.185Z,6
2023-02-21T19:00:00.335Z,5.9
2023-02-21T19:02:26.378Z,5.9
2023-02-21T19:04:52.502Z,5.8
2023-02-21T19:07:18.611Z,5.8
2023-02-21T19:09:44.683Z,5.7
2023-02-21T19:12:10.767Z,5.7
2023-02-21T19:14:36.870Z,5.6
2023-02-21T19:17:02.944Z,5.6
2023-02-21T19:19:28.071Z,5.6
2023-02-21T19:21:54.169Z,5.5
2023-02-21T19:24:19.275Z,5.5
2023-02-21T19:26:45.381Z,5.4
2023-02-21T19:29:11.471Z,5.4
2023-02-21T19:31:37.562Z,5.4
2023-02-21T19:34:03.651Z,5.3
2023-02-21T19:36:29.747Z,5.3
2023-02-21T19:38:55.881Z,5.2
2023-02-21T19:41:21.933Z,5.2
2023-02-21T19:43:48.072Z,5.2
2023-02-21T19:46:14.141Z,5.1
2023-02-21T19:48:40.270Z,5.1
2023-02-21T19:51:06.315Z,5.1
2023-02-21T19:53:32.414Z,5
2023-02-21T19:55:57.526Z,5
2023-02-21T19:58:23.630Z,5
2023-02-21T20:00:49.726Z,4.9
2023-02-21T20:03:15.824Z,4.9
2023-02-21T20:05:41.924Z,4.9
2023-02-21T20:08:08.002Z,4.8
2023-02-21T20:10:34.141Z,4.8
2023-02-21T20:13:00.225Z,4.8
2023-02-21T20:15:26.298Z,4.8
2023-02-21T20:17:52.400Z,4.7
2023-02-21T20:20:18.494Z,4.7
2023-02-21T20:22:44.599Z,4.7
2023-02-21T20:25:10.688Z,4.6
2023-02-21T20:27:35.783Z,4.6
2023-02-21T20:30:01.915Z,4.6
2023-02-21T20:32:27.984Z,4.6
2023-02-21T20:37:20.190Z,4.5
2023-02-21T20:39:46.282Z,4.5
2023-02-21T20:42:12.370Z,4.4
2023-02-21T20:44:38.466Z,4.4
2023-02-21T20:47:04.563Z,4.4
2023-02-21T20:49:30.655Z,4.4
2023-02-21T20:51:56.761Z,4.3
2023-02-21T20:54:22.887Z,4.3
2023-02-21T20:56:48.945Z,4.3
2023-02-21T20:59:15.049Z,4.3
2023-02-21T21:01:41.144Z,4.2
2023-02-21T21:04:07.227Z,4.2
2023-02-21T21:06:33.337Z,4.2
2023-02-21T21:08:58.454Z,4.2
2023-02-21T21:11:24.526Z,4.1
2023-02-21T21:13:50.632Z,4.1
2023-02-21T21:16:16.729Z,4.1
2023-02-21T21:18:42.820Z,4.1
2023-02-21T21:21:08.927Z,4.1
2023-02-21T21:23:35.022Z,4
2023-02-21T21:26:01.125Z,4
2023-02-21T21:28:27.259Z,4
2023-02-21T21:30:53.306Z,4
2023-02-21T21:33:19.403Z,4
2023-02-21T21:35:45.486Z,3.9
2023-02-21T21:38:11.600Z,3.9
2023-02-21T21:40:36.713Z,3.9
2023-02-21T21:43:02.792Z,3.9
2023-02-21T21:45:28.907Z,3.9
2023-02-21T21:47:55.002Z,3.9
2023-02-21T21:50:21.092Z,3.8
2023-02-21T21:52:47.187Z,3.8
2023-02-21T21:55:13.288Z,3.8
2023-02-21T21:57:39.383Z,3.8
2023-02-21T22:00:05.466Z,3.7
2023-02-21T22:02:31.570Z,3.7
2023-02-21T22:04:57.678Z,3.7
2023-02-21T22:07:23.781Z,3.7
2023-02-21T22:09:49.866Z,3.6
2023-02-21T22:12:14.977Z,3.6
2023-02-21T22:14:41.081Z,3.6
2023-02-21T22:17:07.178Z,3.6
2023-02-21T22:19:33.259Z,3.5
2023-02-21T22:21:59.364Z,3.5
2023-02-21T22:24:25.462Z,3.5
2023-02-21T22:26:51.552Z,3.5
2023-02-21T22:29:17.645Z,3.5
2023-02-21T22:31:43.733Z,3.5
2023-02-21T22:34:09.830Z,3.5
2023-02-21T22:36:35.941Z,3.5
2023-02-21T22:39:02.029Z,3.4
2023-02-21T22:41:28.123Z,3.4
2023-02-21T22:43:53.243Z,3.4
2023-02-21T22:46:19.332Z,3.4
2023-02-21T22:48:45.422Z,3.4
2023-02-21T22:51:11.524Z,3.3
2023-02-21T22:53:37.617Z,3.3
2023-02-21T22:56:03.793Z,3.3
2023-02-21T22:58:29.846Z,3.3
2023-02-21T23:00:55.927Z,3.3
2023-02-21T23:03:22.070Z,3.2
2023-02-21T23:05:48.099Z,3.2
2023-02-21T23:08:14.201Z,3.2
2023-02-21T23:10:40.312Z,3.2
2023-02-21T23:13:06.388Z,3.2
2023-02-21T23:15:32.483Z,3.2
2023-02-21T23:17:58.604Z,3.2
2023-02-21T23:20:24.673Z,3.2
2023-02-21T23:22:50.848Z,3.2
2023-02-21T23:25:16.882Z,3.2
2023-02-21T23:27:42.973Z,3.1
2023-02-21T23:30:09.070Z,3.1
2023-02-21T23:32:35.156Z,3.1
2023-02-21T23:35:01.261Z,3.1
2023-02-21T23:37:27.356Z,3.1
2023-02-21T23:39:52.480Z,3
2023-02-21T23:42:18.572Z,3
2023-02-21T23:44:44.675Z,3
2023-02-21T23:47:10.773Z,3
2023-02-21T23:49:36.904Z,3
2023-02-21T23:52:02.972Z,2.9
2023-02-21T23:54:29.065Z,2.9
2023-02-21T23:56:55.169Z,2.9
2023-02-21T23:59:21.248Z,2.9
